EDDK Airport Information

Runway Information
Runway 06 Length 8067 ft width 148 ft
Elevation 231 ft Threshold 0 ft Heading 64
Runway 24 Length 8067 ft Width 148 ft
Elevation 272 ft Threshold 0 ft Heading 244
Runway 14L Length 12516 ft width 197 ft
Elevation 230 ft Threshold 0 ft Heading 138
Runway 32R Length 12516 ft Width 197 ft
Elevation 302 ft Threshold 0 ft Heading 318
Runway 14R Length 6112 ft width 148 ft
Elevation 221 ft Threshold 0 ft Heading 138
Runway 32L Length 6112 ft Width 148 ft
Elevation 259 ft Threshold 0 ft Heading 318
Airport Frequencies
Type ATIS Name ATIS Frequency 112.15 MHZ
Type CLD Name CLNC DEL Frequency 121.85 MHZ
Type DIR Name DIR Frequency 121.05 MHZ
Type GND Name GND Frequency 121.725 MHZ
Type INFO Name LANGEN INF Frequency 129.875 MHZ
Type MISC Name APRON Frequency 121.95 MHZ
Type POST Name MIL Frequency 136.25 MHZ
Type RDR Name LANGEN RAD Frequency 118.75 MHZ
Type TWR Name TWR Frequency 124.975 MHZ
Airport Navaids
Type VORTAC Name Cola Frequency 108800 KHZ
Type VOR-DME Name Koln/Bonn Frequency 112150 KHZ
Type NDB Name Koln/Bonn Frequency 365 KHZ
Type NDB Name Koln/Bonn Frequency 327 KHZ
Type NDB Name Koln/Bonn Frequency 301 KHZ
Airport Weather Information & NOTAM
ADDS - METARS form results

(1912 UTC 22 June 2018)
 
METAR text: EDDK 221850Z 31012KT 9999 FEW042 15/07 Q1026 NOSIG
Conditions at: EDDK (KOELN/BONN , DE) observed 1850 UTC 22 June 2018
Temperature: 15.0°C (59°F)
Dewpoint: 7.0°C (45°F) [RH = 59%]
Pressure (altimeter): 30.30 inches Hg (1026.0 mb)
Winds: from the NW (310 degrees) at 14 MPH (12 knots; 6.2 m/s)
Visibility: 6 or more miles (10+ km)
Ceiling: at least 12,000 feet AGL
Clouds: few clouds at 4200 feet AGL
Weather: no significant weather observed at this time

METAR text: EDDK 221820Z 32015KT 9999 FEW042 15/07 Q1026 NOSIG
Conditions at: EDDK (KOELN/BONN , DE) observed 1820 UTC 22 June 2018
Temperature: 15.0°C (59°F)
Dewpoint: 7.0°C (45°F) [RH = 59%]
Pressure (altimeter): 30.30 inches Hg (1026.0 mb)
Winds: from the NW (320 degrees) at 17 MPH (15 knots; 7.8 m/s)
Visibility: 6 or more miles (10+ km)
Ceiling: at least 12,000 feet AGL
Clouds: few clouds at 4200 feet AGL
Weather: no significant weather observed at this time